Airfield :
LOGIN :

Register | Disclaimer

   EN    FR    IT 

 










Legend :    VFR   Marginal VFR   IFR   Intensive IFR   Very Intensive IFR
Visi :
Ceiling :
>= 8 km
>= 3000ft
5 to 8 km
1000 to 3000 ft
1500m to 5 km
500 to 1000 ft
800 to 1500m
200 to 500 ft
< 800m
< 200 ft
Symbols :   Thunderstorms  Fog  Heavy snow  Heavy precipitations  Wind > 20 kt
SIGMETs :     Misc.  Thunderstorms  Icing  Turbulence  Mountain Waves  Volcanic Ashes







- Airport Elevation : 659 ft
- IATA code : LGG


EBLG - Liège

CURRENT METAR :
  • 240720Z 19009KT 9999 SCT009 BKN018 13/12 Q1022 TEMPO 2500 -DZ BKN003

EXPIRED METARs :
  • 240650Z 20010KT 9999 SCT005 BKN009 13/12 Q1022 TEMPO 2500 -DZ BKN003
  • 240620Z 20009KT 9999 SCT005 BKN009 12/11 Q1022 TEMPO 2500 -DZ BKN003
  • 240550Z 19009KT 4500 -DZ BKN005 12/11 Q1022 TEMPO 2500 -DZ BKN003
  • 240520Z 20010G20KT 2500 -DZ BKN005 12/11 Q1022 TEMPO 2500 -DZ BKN003
  • 240450Z 20009KT 9999 BKN006 12/11 Q1021 TEMPO 2500 -DZ BKN003

TAF TAF EBLG
Valid from the 24 at 06:00 until the 25 at 12:00 UTC


240514Z 2406/2512 21007KT 4000 -DZ BR SCT004 BKN006
PROB40
TEMPO 2406/2411 2500 DZRA BKN003
BECMG 2416/2418 7000 NSW SCT012 BKN018
No reported NOTAMs for that airfield.



MET'MAP, your aeronautical weather chart ! - Copyright ORBIFLY December 2007 - Disclaimer

ORBIFLY MET'MAP TEAM :

Programming & Development : Alexandra Zaïnal
Concept & Development : Baudouin d'Aumeries
Co-Development & Prog : Marc-Olivier Méhu
Technical & hardware support : Manuel Goepfert

Contact : metmap@orbifly.com




SOURCES & CREDITS :

   NOAA